Strona główna
METAR-TAF:

METAR-TAF

Lotnisko :

Port lotniczy Walencja

Walencja, Hiszpania

Szerokość geograficzna: 39-30N, Długość geograficzna: 000-28W, wysokość: 69 m

Aktualna obserwacja pogody

Raport powstał 21 minut temu, godzina 05:00 UTC
Wiatr 5 kt od północno-północny zachód
Temperatura 18°C
Wilgotność 77%
Ciśnienie 1012 hPa
Widzialność: 9000 m
Mało chmury na wysokości 1000 ft

METAR: LEVC 200500Z 33005KT 9000 FEW010 18/14 Q1012 NOSIG

czas: 07:21 (05:21 UTC)

Prognoza

Raport powstał 6 godziny i 21 minut temu, godzina 23:00 UTC
Prognoza ważna od 20 godzina 00 UTC do 20 godzina 24 UTC
Wiatr 3 kt z kierunków zmiennych
Widzialność 10 km lub więcej
Mało chmury na wysokości 2500 ft
Stopniowe zmiany
od 20 godzina 08 UTC do 20 godzina 10 UTC
Wiatr 10 kt od wschód
Stopniowe zmiany
od 20 godzina 18 UTC do 20 godzina 20 UTC
Wiatr 3 kt z kierunków zmiennych

TAF: LEVC 192300Z 2000/2024 VRB03KT 9999 FEW025 TX28/2012Z TN19/2006Z BECMG 2008/2010 08010KT BECMG 2018/2020 VRB03KT

Obserwacja i prognoza pogody dla ponad 4000 lotnisk (raport METAR i TAF).

Dostępne stacje oznaczono żółtymi i czerwonymi punktami na mapie.

Najedź kursorem aby zobaczyć nazwę stacji.

Kliknij aby zobaczyć obserwacje i prognozy pogody.

Aby zmienić mapę: kliknij na zielony przycisk z czarnym krzyżykiem, aby powiększyć; na zielony przycisk z myślnikiem, aby pomniejszyć; na zielone strzałki, aby przejść do map sąsiednich.


METAR-TAF: